Elizabeth Ann — WCZ5348 — position and weather

sailwx.info

Track history (hours):
 
Tides and Currents Weather Stations Pressure Air Temp Water Temp Dewpoint Dewpoint Depression Visibility Wind Speed Wind Dir Waves Ship Positions

Elizabeth Ann

Owner: ATLANTIC GULF TOWING LLC, Chesapeake, VA. More information available from US FCC via Universal Licensing System and Coast Guard Vessel Documentation Center.

Last reported at 2017-Dec-11 17:00 UTC. Time now 2017-Dec-13 20:50 UTC.
Position N 39°46' W 075°28'.

Length 32 m; draft 4 m.

Type: Tug. MMSI: 366773150.

Date/timePositionNaut miles runAvg speedWind from/ knotsBaromVisibWave heightAir tempDewpointWater temp
2017-Dec-11 17:00N 39°46' W 075°28'1 1.4
2017-Dec-11 16:30N 39°47' W 075°27'0 0.0
2017-Dec-11 16:01N 39°47' W 075°27'0 0.0
2017-Dec-11 15:30N 39°47' W 075°27'0 0.0
2017-Dec-11 15:01N 39°47' W 075°27'1 1.2
2017-Dec-11 14:30N 39°47' W 075°27'0 0.0
2017-Dec-11 14:01N 39°47' W 075°27'0 0.0
2017-Dec-11 13:30N 39°47' W 075°27'0 0.0
2017-Dec-11 13:00N 39°47' W 075°27'1 1.5
2017-Dec-11 12:31N 39°47' W 075°27'0 0.1
2017-Dec-11 12:00N 39°47' W 075°27'0 0.0
2017-Dec-11 11:30N 39°47' W 075°27'0 0.0
2017-Dec-11 11:00N 39°47' W 075°27'0 0.0
2017-Dec-11 10:30N 39°47' W 075°27'0 0.0
2017-Dec-11 10:00N 39°47' W 075°27'0 0.2
2017-Dec-11 09:30N 39°47' W 075°27'1 1.1
2017-Dec-11 09:00N 39°47' W 075°27'0 0.3
2017-Dec-11 08:31N 39°47' W 075°27'0 0.9
2017-Dec-11 08:00N 39°47' W 075°27'0 0.2
2017-Dec-11 07:30N 39°47' W 075°27'0 0.1
2017-Dec-11 07:00N 39°47' W 075°27'0 0.0
2017-Dec-11 06:30N 39°47' W 075°27'0 0.0
2017-Dec-11 06:00N 39°47' W 075°27'0 0.0
2017-Dec-11 05:30N 39°47' W 075°27'0 0.0
2017-Dec-11 05:00N 39°47' W 075°27'1 1.8
2017-Dec-11 04:30N 39°47' W 075°26'3 6.0
2017-Dec-11 04:00N 39°49' W 075°23'0 0.8
2017-Dec-11 03:30N 39°49' W 075°23'2 3.6
2017-Dec-11 03:00N 39°48' W 075°25'1 1.7
2017-Dec-11 02:31N 39°48' W 075°26'2 3.8
2017-Dec-11 02:00N 39°47' W 075°27'1 1.6
2017-Dec-11 01:31N 39°46' W 075°28'1 1.8
2017-Dec-11 01:01N 39°47' W 075°28'2 4.0
2017-Dec-11 00:30N 39°48' W 075°25'2 4.5
2017-Dec-11 00:00N 39°49' W 075°23'2 4.0
2017-Dec-10 23:30N 39°51' W 075°21'1 1.5
2017-Dec-10 23:00N 39°51' W 075°20'0 0.1
2017-Dec-10 22:30N 39°51' W 075°20'3 6.4
2017-Dec-10 22:00N 39°49' W 075°23'0 0.3
2017-Dec-10 21:30N 39°49' W 075°23'2 3.5
2017-Dec-10 21:01N 39°48' W 075°25'3 6.3
2017-Dec-10 20:30N 39°46' W 075°28'4 8.4
2017-Dec-10 20:00N 39°42' W 075°31'5 9.2
2017-Dec-10 19:30N 39°38' W 075°34'4 8.5
2017-Dec-10 19:00N 39°34' W 075°33'4 8.5
2017-Dec-10 18:30N 39°30' W 075°33'4 8.1
2017-Dec-10 18:00N 39°26' W 075°32'4 7.9
2017-Dec-10 17:30N 39°23' W 075°29'4 7.3
2017-Dec-10 17:00N 39°20' W 075°26'4 7.1
2017-Dec-10 16:30N 39°18' W 075°23'3 6.9
2017-Dec-10 16:00N 39°15' W 075°19'3 6.6
2017-Dec-10 15:30N 39°12' W 075°17'3 7.1
2017-Dec-10 15:01N 39°09' W 075°15'4 7.1
2017-Dec-10 14:30N 39°07' W 075°12'3 6.6
2017-Dec-10 14:00N 39°03' W 075°10'3 6.8
2017-Dec-10 13:31N 39°00' W 075°09'2 4.3
2017-Dec-10 13:00N 38°58' W 075°10'1 1.2
2017-Dec-10 12:30N 38°59' W 075°09'1 1.6
2017-Dec-10 12:00N 38°58' W 075°09'1 1.8
2017-Dec-10 11:30N 38°59' W 075°09'2 4.6
2017-Dec-10 11:00N 39°01' W 075°09'3 6.0
2017-Dec-10 10:30N 39°04' W 075°11'3 5.9
2017-Dec-10 10:01N 39°07' W 075°13'3 5.7
2017-Dec-10 09:30N 39°09' W 075°15'3 5.5
2017-Dec-10 09:00N 39°11' W 075°17'2 4.9
2017-Dec-10 08:30N 39°14' W 075°18'2 4.2
2017-Dec-10 08:00N 39°15' W 075°20'2 3.9
2017-Dec-10 07:30N 39°17' W 075°21'2 3.8
2017-Dec-10 07:01N 39°18' W 075°23'2 4.1
2017-Dec-10 06:31N 39°20' W 075°25'2 3.7
2017-Dec-10 06:00N 39°21' W 075°26'2 4.1
2017-Dec-10 05:30N 39°22' W 075°28'2 4.1
2017-Dec-10 05:01N 39°24' W 075°30'2 4.8
2017-Dec-10 04:30N 39°26' W 075°32'3 5.5
2017-Dec-10 04:00N 39°28' W 075°34'3 6.0
2017-Dec-10 03:30N 39°31' W 075°33'3 5.9
2017-Dec-10 03:00N 39°34' W 075°33'3 6.2
2017-Dec-10 02:30N 39°37' W 075°35'3 5.8
2017-Dec-10 02:00N 39°39' W 075°33'3 6.0
2017-Dec-10 01:30N 39°42' W 075°31'3 5.6
2017-Dec-10 01:00N 39°45' W 075°30'2 4.9
2017-Dec-10 00:31N 39°47' W 075°28'0 0.4
2017-Dec-10 00:00N 39°47' W 075°27'1 1.7
2017-Dec-09 23:30N 39°47' W 075°27'0 0.0
2017-Dec-09 23:00N 39°47' W 075°27'0 0.0
2017-Dec-09 22:30N 39°47' W 075°27'0 0.0
2017-Dec-09 22:00N 39°47' W 075°27'0 0.0
2017-Dec-09 21:30N 39°47' W 075°27'0 0.0
2017-Dec-09 21:00N 39°47' W 075°27'1 1.0
2017-Dec-09 20:30N 39°47' W 075°27'0 0.0
2017-Dec-09 20:00N 39°47' W 075°27'0 0.1
2017-Dec-09 19:31N 39°47' W 075°27'0 0.4
2017-Dec-09 19:00N 39°47' W 075°27'0 0.0
2017-Dec-09 18:30N 39°47' W 075°27'0 0.0
2017-Dec-09 18:00N 39°47' W 075°27'0 0.0
2017-Dec-09 17:30N 39°47' W 075°27'0 0.0
2017-Dec-09 17:00N 39°47' W 075°27'0 0.0
2017-Dec-09 16:30N 39°47' W 075°27'0 0.0
2017-Dec-09 16:00N 39°47' W 075°27'0 0.0
2017-Dec-09 15:30N 39°47' W 075°27'0 0.0
2017-Dec-09 15:00N 39°47' W 075°27'0 0.3
2017-Dec-09 14:30N 39°47' W 075°27'0 0.0
2017-Dec-09 14:00N 39°47' W 075°27'0 0.0
2017-Dec-09 13:31N 39°47' W 075°27'0 0.0
2017-Dec-09 13:00N 39°47' W 075°27'0 0.0
2017-Dec-09 12:30N 39°47' W 075°27'0 0.0
2017-Dec-09 12:01N 39°47' W 075°27'0 0.2
2017-Dec-09 11:31N 39°47' W 075°27'0 0.1
2017-Dec-09 11:00N 39°47' W 075°27'0 0.1
2017-Dec-09 10:30N 39°47' W 075°27'0 0.0
2017-Dec-09 10:00N 39°47' W 075°27'0 0.0
2017-Dec-09 09:30N 39°47' W 075°27'0 0.0
2017-Dec-09 09:00N 39°47' W 075°27'0 0.0
2017-Dec-09 08:30N 39°47' W 075°27'0 0.0
2017-Dec-09 08:01N 39°47' W 075°27'0 0.0
2017-Dec-09 07:31N 39°47' W 075°27'0 0.0
2017-Dec-09 07:00N 39°47' W 075°27'0 0.0
2017-Dec-09 06:31N 39°47' W 075°27'0 0.0
2017-Dec-09 06:01N 39°47' W 075°27'0 0.1
2017-Dec-09 05:30N 39°47' W 075°27'0 0.2
2017-Dec-09 05:00N 39°47' W 075°27'0 0.0
2017-Dec-09 04:31N 39°47' W 075°27'0 0.0
2017-Dec-09 04:00N 39°47' W 075°27'0 0.0
2017-Dec-09 03:30N 39°47' W 075°27'0 0.0
2017-Dec-09 03:00N 39°47' W 075°27'0 0.0
2017-Dec-09 02:30N 39°47' W 075°27'0 0.0
2017-Dec-09 02:00N 39°47' W 075°27'0 0.0
2017-Dec-09 01:30N 39°47' W 075°27'0 0.0
2017-Dec-09 01:00N 39°47' W 075°27'0 0.0
2017-Dec-09 00:31N 39°47' W 075°27'0 0.0
2017-Dec-09 00:00N 39°47' W 075°27'0 0.0
2017-Dec-08 23:30N 39°47' W 075°27'0 0.1
2017-Dec-08 23:00N 39°47' W 075°27'0 0.2
2017-Dec-08 22:30N 39°47' W 075°27'0 0.0
2017-Dec-08 22:00N 39°47' W 075°27'0 0.0
2017-Dec-08 21:31N 39°47' W 075°27'0 0.0
2017-Dec-08 21:00N 39°47' W 075°27'0 0.0
2017-Dec-08 20:30N 39°47' W 075°27'0 0.0
2017-Dec-08 20:00N 39°47' W 075°27'0 0.0
2017-Dec-08 19:30N 39°47' W 075°27'0 0.0
2017-Dec-08 19:00N 39°47' W 075°27'0 0.0
2017-Dec-08 18:31N 39°47' W 075°27'0 0.0
2017-Dec-08 18:01N 39°47' W 075°27'0 0.0
2017-Dec-08 17:31N 39°47' W 075°27'0 0.0
2017-Dec-08 17:01N 39°47' W 075°27'0 0.2
2017-Dec-08 16:30N 39°47' W 075°27'0 0.1
2017-Dec-08 16:00N 39°47' W 075°27'0 0.0
2017-Dec-08 15:30N 39°47' W 075°27'0 0.0
2017-Dec-08 15:01N 39°47' W 075°27'0 0.3
2017-Dec-08 14:30N 39°47' W 075°27'0 0.2
2017-Dec-08 14:01N 39°47' W 075°27'2 4.0
2017-Dec-08 13:30N 39°48' W 075°25'3 5.8
2017-Dec-08 13:00N 39°50' W 075°22'2 4.2
2017-Dec-08 12:30N 39°51' W 075°20'1 1.9
2017-Dec-08 12:00N 39°51' W 075°21'2 4.1
2017-Dec-08 11:30N 39°49' W 075°23'2 4.7
2017-Dec-08 11:00N 39°48' W 075°26'1 2.1
2017-Dec-08 10:30N 39°47' W 075°27'0 0.0
2017-Dec-08 10:00N 39°47' W 075°27'0 0.0
2017-Dec-08 09:30N 39°47' W 075°27'0 0.0
2017-Dec-08 09:01N 39°47' W 075°27'0 0.0
2017-Dec-08 08:30N 39°47' W 075°27'0 0.0
2017-Dec-08 08:00N 39°47' W 075°27'0 0.0
2017-Dec-08 07:30N 39°47' W 075°27'0 0.0
2017-Dec-08 07:00N 39°47' W 075°27'0 0.0
2017-Dec-08 06:31N 39°47' W 075°27'0 0.0
2017-Dec-08 06:00N 39°47' W 075°27'0 0.0
2017-Dec-08 05:30N 39°47' W 075°27'0 0.0
2017-Dec-08 05:00N 39°47' W 075°27'0 0.0
2017-Dec-08 04:31N 39°47' W 075°27'0 0.0
2017-Dec-08 04:00N 39°47' W 075°27'0 0.0
2017-Dec-08 03:31N 39°47' W 075°27'0 0.0
2017-Dec-08 03:00N 39°47' W 075°27'0 0.0
2017-Dec-08 02:30N 39°47' W 075°27'0 0.0
2017-Dec-08 02:00N 39°47' W 075°27'0 0.0
2017-Dec-08 01:31N 39°47' W 075°27'0 0.0
2017-Dec-08 01:01N 39°47' W 075°27'0 0.0
2017-Dec-08 00:31N 39°47' W 075°27'0 0.0
2017-Dec-08 00:00N 39°47' W 075°27'0 0.0
2017-Dec-07 23:30N 39°47' W 075°27'0 0.0
2017-Dec-07 23:00N 39°47' W 075°27'0 0.0
2017-Dec-07 22:30N 39°47' W 075°27'0 0.0
2017-Dec-07 22:00N 39°47' W 075°27'0 0.0
2017-Dec-07 21:31N 39°47' W 075°27'0 0.0
2017-Dec-07 21:00N 39°47' W 075°27'0 0.0
2017-Dec-07 20:30N 39°47' W 075°27'0 0.0
2017-Dec-07 20:00N 39°47' W 075°27'0 0.0
2017-Dec-07 19:30N 39°47' W 075°27'0 0.0
2017-Dec-07 19:00N 39°47' W 075°27'0 0.0
2017-Dec-07 18:30N 39°47' W 075°27'0 0.0
2017-Dec-07 18:00N 39°47' W 075°27'0 0.0
2017-Dec-07 17:30N 39°47' W 075°27'0 0.0
2017-Dec-07 17:00N 39°47' W 075°27'0 0.0
2017-Dec-07 16:30N 39°47' W 075°27'0 0.0
2017-Dec-07 16:00N 39°47' W 075°27'0 0.0
2017-Dec-07 15:30N 39°47' W 075°27'0 0.0
2017-Dec-07 15:00N 39°47' W 075°27'0 0.6
2017-Dec-07 14:30N 39°47' W 075°26'1 1.8
2017-Dec-07 14:01N 39°47' W 075°27'0 0.3
2017-Dec-07 13:30N 39°47' W 075°27'0 0.3
2017-Dec-07 13:00N 39°47' W 075°27'0 0.0
2017-Dec-07 12:30N 39°47' W 075°27'0 0.0
2017-Dec-07 12:00N 39°47' W 075°27'0 0.0
2017-Dec-07 11:30N 39°47' W 075°27'0 0.0
2017-Dec-07 11:00N 39°47' W 075°27'0 0.0
2017-Dec-07 10:31N 39°47' W 075°27'0 0.0
2017-Dec-07 10:00N 39°47' W 075°27'0 0.2
2017-Dec-07 09:30N 39°47' W 075°27'0 0.1
2017-Dec-07 09:00N 39°47' W 075°27'0 0.0
2017-Dec-07 08:30N 39°47' W 075°27'0 0.0
2017-Dec-07 08:01N 39°47' W 075°27'0 0.0
2017-Dec-07 07:30N 39°47' W 075°27'0 0.0
2017-Dec-07 07:01N 39°47' W 075°27'0 0.0
2017-Dec-07 06:30N 39°47' W 075°27'0 0.0
2017-Dec-07 06:00N 39°47' W 075°27'0 0.0
2017-Dec-07 05:30N 39°47' W 075°27'0 0.0
2017-Dec-07 04:59N 39°47' W 075°27'0 0.0
2017-Dec-07 04:29N 39°47' W 075°27'0 0.0
2017-Dec-07 04:00N 39°47' W 075°27'0 0.2
2017-Dec-07 03:30N 39°47' W 075°27'0 0.1
2017-Dec-07 03:00N 39°47' W 075°27'0 0.0
2017-Dec-07 02:30N 39°47' W 075°27'0 0.0
2017-Dec-07 02:01N 39°47' W 075°27'0 0.0
2017-Dec-07 01:31N 39°47' W 075°27'0 0.0
2017-Dec-07 01:01N 39°47' W 075°27'0 0.0
2017-Dec-07 00:30N 39°47' W 075°27'0 0.0
2017-Dec-07 00:00N 39°47' W 075°27'0 0.0
2017-Dec-06 23:30N 39°47' W 075°27'0 0.0
2017-Dec-06 23:00N 39°47' W 075°27'0 0.0
2017-Dec-06 22:31N 39°47' W 075°27'0 0.0
2017-Dec-06 22:01N 39°47' W 075°27'0 0.0
2017-Dec-06 21:31N 39°47' W 075°27'0 0.2
2017-Dec-06 21:01N 39°47' W 075°27'  
2017-Dec-04 10:30N 39°47' W 075°28'0 0.2
2017-Dec-04 10:01N 39°47' W 075°27'0 0.1
2017-Dec-04 09:23N 39°47' W 075°27'0 0.0
2017-Dec-04 08:59N 39°47' W 075°27'0 0.0
2017-Dec-04 08:30N 39°47' W 075°27'0 0.0
2017-Dec-04 08:00N 39°47' W 075°27'0 0.1
2017-Dec-04 07:30N 39°47' W 075°27'3 5.3
2017-Dec-04 06:59N 39°48' W 075°25'3 6.5
2017-Dec-04 06:27N 39°51' W 075°21'0 0.6
2017-Dec-04 05:59N 39°50' W 075°21'1 1.9
2017-Dec-04 05:29N 39°51' W 075°20'1 1.9
2017-Dec-04 04:59N 39°50' W 075°21'4 7.2
2017-Dec-04 04:25N 39°48' W 075°26'1 2.1
2017-Dec-04 04:00N 39°48' W 075°25'2 3.4
2017-Dec-04 03:27N 39°47' W 075°27'0 0.0
2017-Dec-04 02:57N 39°47' W 075°27'0 0.0
2017-Dec-04 02:28N 39°47' W 075°27'0 0.0
2017-Dec-04 01:59N 39°47' W 075°27'0 0.0
2017-Dec-04 01:28N 39°47' W 075°27'0 0.0
2017-Dec-04 00:55N 39°47' W 075°27'0 0.0
2017-Dec-04 00:23N 39°47' W 075°27'0 0.0
2017-Dec-04 00:00N 39°47' W 075°27'0 0.0
2017-Dec-03 23:30N 39°47' W 075°27'0 0.0
2017-Dec-03 23:00N 39°47' W 075°27'0 0.0
2017-Dec-03 22:29N 39°47' W 075°27'0 0.0
2017-Dec-03 22:00N 39°47' W 075°27'0 0.0
2017-Dec-03 21:30N 39°47' W 075°27'0 0.0
2017-Dec-03 20:50N 39°47' W 075°27'0 0.0
2017-Dec-03 20:28N 39°47' W 075°27'0 0.2
2017-Dec-03 20:01N 39°47' W 075°26'0 0.1
2017-Dec-03 19:20N 39°47' W 075°27'0 0.0
2017-Dec-03 18:52N 39°47' W 075°27'0 0.0
2017-Dec-03 18:27N 39°47' W 075°27'0 0.0
2017-Dec-03 17:59N 39°47' W 075°27'0 0.0
2017-Dec-03 17:29N 39°47' W 075°27'0 0.0
2017-Dec-03 16:58N 39°47' W 075°27'0 0.0
2017-Dec-03 16:23N 39°47' W 075°27'0 0.0
2017-Dec-03 15:53N 39°47' W 075°27'0 0.0
2017-Dec-03 15:29N 39°47' W 075°27'0 0.0
2017-Dec-03 14:56N 39°47' W 075°27'0 0.1
2017-Dec-03 14:28N 39°47' W 075°27'0 0.0
2017-Dec-03 14:00N 39°47' W 075°27'0 0.0
2017-Dec-03 13:24N 39°47' W 075°27'0 0.0
2017-Dec-03 12:56N 39°47' W 075°27'0 0.0
2017-Dec-03 12:30N 39°47' W 075°27'0 0.0
2017-Dec-03 11:59N 39°47' W 075°27'0 0.0
2017-Dec-03 11:28N 39°47' W 075°27'0 0.0
2017-Dec-03 10:58N 39°47' W 075°27'0 0.0
2017-Dec-03 10:24N 39°47' W 075°27'0 0.2
2017-Dec-03 09:55N 39°47' W 075°27'1 1.2
2017-Dec-03 09:30N 39°47' W 075°27'0 0.1
2017-Dec-03 08:52N 39°47' W 075°27'0 0.0
2017-Dec-03 08:30N 39°47' W 075°27'0 0.1
2017-Dec-03 08:00N 39°47' W 075°27'2 4.5
2017-Dec-03 07:29N 39°48' W 075°25'3 6.4
2017-Dec-03 06:58N 39°50' W 075°21'1 1.6
2017-Dec-03 06:28N 39°51' W 075°21'0 0.6
2017-Dec-03 06:00N 39°51' W 075°20'0 0.1
2017-Dec-03 05:29N 39°51' W 075°20'0 0.6
2017-Dec-03 04:58N 39°51' W 075°20'2 3.8
2017-Dec-03 04:26N 39°50' W 075°22'2 5.5
2017-Dec-03 04:00N 39°48' W 075°25'2 3.9
2017-Dec-03 03:30N 39°47' W 075°27'0 0.0
2017-Dec-03 02:59N 39°47' W 075°27'0 0.0
2017-Dec-03 02:29N 39°47' W 075°27'0 0.0
2017-Dec-03 02:00N 39°47' W 075°27'0 0.0
2017-Dec-03 01:27N 39°47' W 075°27'0 0.0
2017-Dec-03 00:59N 39°47' W 075°27'0 0.0
2017-Dec-03 00:30N 39°47' W 075°27'0 0.0
2017-Dec-03 00:00N 39°47' W 075°27'0 0.0
2017-Dec-02 23:30N 39°47' W 075°27'0 0.0
2017-Dec-02 22:59N 39°47' W 075°27'0 0.0
2017-Dec-02 22:27N 39°47' W 075°27'0 0.0
2017-Dec-02 21:58N 39°47' W 075°27'0 0.0
2017-Dec-02 21:29N 39°47' W 075°27'0 0.0
2017-Dec-02 21:00N 39°47' W 075°27'0 0.0
2017-Dec-02 20:29N 39°47' W 075°27'0 0.0
2017-Dec-02 19:58N 39°47' W 075°27'1 1.3
2017-Dec-02 19:30N 39°47' W 075°27'1 1.1
2017-Dec-02 18:57N 39°47' W 075°27'1 1.2
2017-Dec-02 18:30N 39°47' W 075°27'0 0.0
2017-Dec-02 18:00N 39°47' W 075°27'0 0.1
2017-Dec-02 17:30N 39°47' W 075°27'0 0.2
2017-Dec-02 17:00N 39°47' W 075°27'0 0.0
2017-Dec-02 16:28N 39°47' W 075°27'0 0.0
2017-Dec-02 15:57N 39°47' W 075°27'0 0.2
2017-Dec-02 15:30N 39°47' W 075°27'0 0.1
2017-Dec-02 14:59N 39°47' W 075°27'0 0.2
2017-Dec-02 14:30N 39°47' W 075°27'0 0.0
2017-Dec-02 13:59N 39°47' W 075°27'0 0.0
2017-Dec-02 13:28N 39°47' W 075°27'0 0.0
2017-Dec-02 12:59N 39°47' W 075°27'0 0.0
2017-Dec-02 12:26N 39°47' W 075°27'0 0.0
2017-Dec-02 11:59N 39°47' W 075°27'0 0.0
2017-Dec-02 11:29N 39°47' W 075°27'0 0.2
2017-Dec-02 11:01N 39°47' W 075°27'0 0.0
2017-Dec-02 10:30N 39°47' W 075°27'0 0.0
2017-Dec-02 10:00N 39°47' W 075°27'0 0.0
2017-Dec-02 09:30N 39°47' W 075°27'0 0.0
2017-Dec-02 09:00N 39°47' W 075°27'0 0.0
2017-Dec-02 08:30N 39°47' W 075°27'0 0.0
2017-Dec-02 08:00N 39°47' W 075°27'0 0.0
2017-Dec-02 07:30N 39°47' W 075°27'2 4.7
2017-Dec-02 06:59N 39°48' W 075°25'3 7.0
2017-Dec-02 06:30N 39°50' W 075°21'1 2.1
2017-Dec-02 06:00N 39°51' W 075°20'1 1.4
2017-Dec-02 05:30N 39°51' W 075°21'4 7.2
2017-Dec-02 05:00N 39°49' W 075°24'2 4.5
2017-Dec-02 04:30N 39°47' W 075°27'0 0.1
2017-Dec-02 04:00N 39°47' W 075°27'0 0.0
2017-Dec-02 03:29N 39°47' W 075°27'0 0.0
2017-Dec-02 03:00N 39°47' W 075°27'0 0.0
2017-Dec-02 02:30N 39°47' W 075°27'0 0.3
2017-Dec-02 01:59N 39°47' W 075°27'0 0.0
2017-Dec-02 01:30N 39°47' W 075°27'0 0.0
2017-Dec-02 01:00N 39°47' W 075°27'0 0.0
2017-Dec-02 00:30N 39°47' W 075°27'0 0.0
2017-Dec-02 00:00N 39°47' W 075°27'0 0.0
2017-Dec-01 23:30N 39°47' W 075°27'0 0.0
2017-Dec-01 23:00N 39°47' W 075°27'0 0.0
2017-Dec-01 22:31N 39°47' W 075°27'0 0.0
2017-Dec-01 22:01N 39°47' W 075°27'0 0.0
2017-Dec-01 21:28N 39°47' W 075°27'0 0.0
2017-Dec-01 21:01N 39°47' W 075°27'0 0.0
2017-Dec-01 20:30N 39°47' W 075°27'0 0.0
2017-Dec-01 20:01N 39°47' W 075°27'0 0.0
2017-Dec-01 19:31N 39°47' W 075°27'0 0.0
2017-Dec-01 19:00N 39°47' W 075°27'0 0.0
2017-Dec-01 18:30N 39°47' W 075°27'0 0.0
2017-Dec-01 18:01N 39°47' W 075°27'0 0.0
2017-Dec-01 17:30N 39°47' W 075°27'0 0.0
2017-Dec-01 17:00N 39°47' W 075°27'  
Track history (hours):
 
Tides and Currents Weather Stations Pressure Air Temp Water Temp Dewpoint Dewpoint Depression Visibility Wind Speed Wind Dir Waves Ship Positions

Elizabeth Ann

Owner: ATLANTIC GULF TOWING LLC, Chesapeake, VA. More information available from US FCC via Universal Licensing System and Coast Guard Vessel Documentation Center.

Last reported at 2017-Dec-11 17:00 UTC. Time now 2017-Dec-13 20:50 UTC.
Position N 39°46' W 075°28'.

Length 32 m; draft 4 m.

Type: Tug. MMSI: 366773150.

Date/timePositionNaut miles runAvg speedWind from/ knotsBaromVisibWave heightAir tempDewpointWater temp
2017-Dec-11 17:00N 39°46' W 075°28'1 1.4
2017-Dec-11 16:30N 39°47' W 075°27'0 0.0
2017-Dec-11 16:01N 39°47' W 075°27'0 0.0
2017-Dec-11 15:30N 39°47' W 075°27'0 0.0
2017-Dec-11 15:01N 39°47' W 075°27'1 1.2
2017-Dec-11 14:30N 39°47' W 075°27'0 0.0
2017-Dec-11 14:01N 39°47' W 075°27'0 0.0
2017-Dec-11 13:30N 39°47' W 075°27'0 0.0
2017-Dec-11 13:00N 39°47' W 075°27'1 1.5
2017-Dec-11 12:31N 39°47' W 075°27'0 0.1
2017-Dec-11 12:00N 39°47' W 075°27'0 0.0
2017-Dec-11 11:30N 39°47' W 075°27'0 0.0
2017-Dec-11 11:00N 39°47' W 075°27'0 0.0
2017-Dec-11 10:30N 39°47' W 075°27'0 0.0
2017-Dec-11 10:00N 39°47' W 075°27'0 0.2
2017-Dec-11 09:30N 39°47' W 075°27'1 1.1
2017-Dec-11 09:00N 39°47' W 075°27'0 0.3
2017-Dec-11 08:31N 39°47' W 075°27'0 0.9
2017-Dec-11 08:00N 39°47' W 075°27'0 0.2
2017-Dec-11 07:30N 39°47' W 075°27'0 0.1
2017-Dec-11 07:00N 39°47' W 075°27'0 0.0
2017-Dec-11 06:30N 39°47' W 075°27'0 0.0
2017-Dec-11 06:00N 39°47' W 075°27'0 0.0
2017-Dec-11 05:30N 39°47' W 075°27'0 0.0
2017-Dec-11 05:00N 39°47' W 075°27'1 1.8
2017-Dec-11 04:30N 39°47' W 075°26'3 6.0
2017-Dec-11 04:00N 39°49' W 075°23'0 0.8
2017-Dec-11 03:30N 39°49' W 075°23'2 3.6
2017-Dec-11 03:00N 39°48' W 075°25'1 1.7
2017-Dec-11 02:31N 39°48' W 075°26'2 3.8
2017-Dec-11 02:00N 39°47' W 075°27'1 1.6
2017-Dec-11 01:31N 39°46' W 075°28'1 1.8
2017-Dec-11 01:01N 39°47' W 075°28'2 4.0
2017-Dec-11 00:30N 39°48' W 075°25'2 4.5
2017-Dec-11 00:00N 39°49' W 075°23'2 4.0
2017-Dec-10 23:30N 39°51' W 075°21'1 1.5
2017-Dec-10 23:00N 39°51' W 075°20'0 0.1
2017-Dec-10 22:30N 39°51' W 075°20'3 6.4
2017-Dec-10 22:00N 39°49' W 075°23'0 0.3
2017-Dec-10 21:30N 39°49' W 075°23'2 3.5
2017-Dec-10 21:01N 39°48' W 075°25'3 6.3
2017-Dec-10 20:30N 39°46' W 075°28'4 8.4
2017-Dec-10 20:00N 39°42' W 075°31'5 9.2
2017-Dec-10 19:30N 39°38' W 075°34'4 8.5
2017-Dec-10 19:00N 39°34' W 075°33'4 8.5
2017-Dec-10 18:30N 39°30' W 075°33'4 8.1
2017-Dec-10 18:00N 39°26' W 075°32'4 7.9
2017-Dec-10 17:30N 39°23' W 075°29'4 7.3
2017-Dec-10 17:00N 39°20' W 075°26'4 7.1
2017-Dec-10 16:30N 39°18' W 075°23'3 6.9
2017-Dec-10 16:00N 39°15' W 075°19'3 6.6
2017-Dec-10 15:30N 39°12' W 075°17'3 7.1
2017-Dec-10 15:01N 39°09' W 075°15'4 7.1
2017-Dec-10 14:30N 39°07' W 075°12'3 6.6
2017-Dec-10 14:00N 39°03' W 075°10'3 6.8
2017-Dec-10 13:31N 39°00' W 075°09'2 4.3
2017-Dec-10 13:00N 38°58' W 075°10'1 1.2
2017-Dec-10 12:30N 38°59' W 075°09'1 1.6
2017-Dec-10 12:00N 38°58' W 075°09'1 1.8
2017-Dec-10 11:30N 38°59' W 075°09'2 4.6
2017-Dec-10 11:00N 39°01' W 075°09'3 6.0
2017-Dec-10 10:30N 39°04' W 075°11'3 5.9
2017-Dec-10 10:01N 39°07' W 075°13'3 5.7
2017-Dec-10 09:30N 39°09' W 075°15'3 5.5
2017-Dec-10 09:00N 39°11' W 075°17'2 4.9
2017-Dec-10 08:30N 39°14' W 075°18'2 4.2
2017-Dec-10 08:00N 39°15' W 075°20'2 3.9
2017-Dec-10 07:30N 39°17' W 075°21'2 3.8
2017-Dec-10 07:01N 39°18' W 075°23'2 4.1
2017-Dec-10 06:31N 39°20' W 075°25'2 3.7
2017-Dec-10 06:00N 39°21' W 075°26'2 4.1
2017-Dec-10 05:30N 39°22' W 075°28'2 4.1
2017-Dec-10 05:01N 39°24' W 075°30'2 4.8
2017-Dec-10 04:30N 39°26' W 075°32'3 5.5
2017-Dec-10 04:00N 39°28' W 075°34'3 6.0
2017-Dec-10 03:30N 39°31' W 075°33'3 5.9
2017-Dec-10 03:00N 39°34' W 075°33'3 6.2
2017-Dec-10 02:30N 39°37' W 075°35'3 5.8
2017-Dec-10 02:00N 39°39' W 075°33'3 6.0
2017-Dec-10 01:30N 39°42' W 075°31'3 5.6
2017-Dec-10 01:00N 39°45' W 075°30'2 4.9
2017-Dec-10 00:31N 39°47' W 075°28'0 0.4
2017-Dec-10 00:00N 39°47' W 075°27'1 1.7
2017-Dec-09 23:30N 39°47' W 075°27'0 0.0
2017-Dec-09 23:00N 39°47' W 075°27'0 0.0
2017-Dec-09 22:30N 39°47' W 075°27'0 0.0
2017-Dec-09 22:00N 39°47' W 075°27'0 0.0
2017-Dec-09 21:30N 39°47' W 075°27'0 0.0
2017-Dec-09 21:00N 39°47' W 075°27'1 1.0
2017-Dec-09 20:30N 39°47' W 075°27'0 0.0
2017-Dec-09 20:00N 39°47' W 075°27'0 0.1
2017-Dec-09 19:31N 39°47' W 075°27'0 0.4
2017-Dec-09 19:00N 39°47' W 075°27'0 0.0
2017-Dec-09 18:30N 39°47' W 075°27'0 0.0
2017-Dec-09 18:00N 39°47' W 075°27'0 0.0
2017-Dec-09 17:30N 39°47' W 075°27'0 0.0
2017-Dec-09 17:00N 39°47' W 075°27'0 0.0
2017-Dec-09 16:30N 39°47' W 075°27'0 0.0
2017-Dec-09 16:00N 39°47' W 075°27'0 0.0
2017-Dec-09 15:30N 39°47' W 075°27'0 0.0
2017-Dec-09 15:00N 39°47' W 075°27'0 0.3
2017-Dec-09 14:30N 39°47' W 075°27'0 0.0
2017-Dec-09 14:00N 39°47' W 075°27'0 0.0
2017-Dec-09 13:31N 39°47' W 075°27'0 0.0
2017-Dec-09 13:00N 39°47' W 075°27'0 0.0
2017-Dec-09 12:30N 39°47' W 075°27'0 0.0
2017-Dec-09 12:01N 39°47' W 075°27'0 0.2
2017-Dec-09 11:31N 39°47' W 075°27'0 0.1
2017-Dec-09 11:00N 39°47' W 075°27'0 0.1
2017-Dec-09 10:30N 39°47' W 075°27'0 0.0
2017-Dec-09 10:00N 39°47' W 075°27'0 0.0
2017-Dec-09 09:30N 39°47' W 075°27'0 0.0
2017-Dec-09 09:00N 39°47' W 075°27'0 0.0
2017-Dec-09 08:30N 39°47' W 075°27'0 0.0
2017-Dec-09 08:01N 39°47' W 075°27'0 0.0
2017-Dec-09 07:31N 39°47' W 075°27'0 0.0
2017-Dec-09 07:00N 39°47' W 075°27'0 0.0
2017-Dec-09 06:31N 39°47' W 075°27'0 0.0
2017-Dec-09 06:01N 39°47' W 075°27'0 0.1
2017-Dec-09 05:30N 39°47' W 075°27'0 0.2
2017-Dec-09 05:00N 39°47' W 075°27'0 0.0
2017-Dec-09 04:31N 39°47' W 075°27'0 0.0
2017-Dec-09 04:00N 39°47' W 075°27'0 0.0
2017-Dec-09 03:30N 39°47' W 075°27'0 0.0
2017-Dec-09 03:00N 39°47' W 075°27'0 0.0
2017-Dec-09 02:30N 39°47' W 075°27'0 0.0
2017-Dec-09 02:00N 39°47' W 075°27'0 0.0
2017-Dec-09 01:30N 39°47' W 075°27'0 0.0
2017-Dec-09 01:00N 39°47' W 075°27'0 0.0
2017-Dec-09 00:31N 39°47' W 075°27'0 0.0
2017-Dec-09 00:00N 39°47' W 075°27'0 0.0
2017-Dec-08 23:30N 39°47' W 075°27'0 0.1
2017-Dec-08 23:00N 39°47' W 075°27'0 0.2
2017-Dec-08 22:30N 39°47' W 075°27'0 0.0
2017-Dec-08 22:00N 39°47' W 075°27'0 0.0
2017-Dec-08 21:31N 39°47' W 075°27'0 0.0
2017-Dec-08 21:00N 39°47' W 075°27'0 0.0
2017-Dec-08 20:30N 39°47' W 075°27'0 0.0
2017-Dec-08 20:00N 39°47' W 075°27'0 0.0
2017-Dec-08 19:30N 39°47' W 075°27'0 0.0
2017-Dec-08 19:00N 39°47' W 075°27'0 0.0
2017-Dec-08 18:31N 39°47' W 075°27'0 0.0
2017-Dec-08 18:01N 39°47' W 075°27'0 0.0
2017-Dec-08 17:31N 39°47' W 075°27'0 0.0
2017-Dec-08 17:01N 39°47' W 075°27'0 0.2
2017-Dec-08 16:30N 39°47' W 075°27'0 0.1
2017-Dec-08 16:00N 39°47' W 075°27'0 0.0
2017-Dec-08 15:30N 39°47' W 075°27'0 0.0
2017-Dec-08 15:01N 39°47' W 075°27'0 0.3
2017-Dec-08 14:30N 39°47' W 075°27'0 0.2
2017-Dec-08 14:01N 39°47' W 075°27'2 4.0
2017-Dec-08 13:30N 39°48' W 075°25'3 5.8
2017-Dec-08 13:00N 39°50' W 075°22'2 4.2
2017-Dec-08 12:30N 39°51' W 075°20'1 1.9
2017-Dec-08 12:00N 39°51' W 075°21'2 4.1
2017-Dec-08 11:30N 39°49' W 075°23'2 4.7
2017-Dec-08 11:00N 39°48' W 075°26'1 2.1
2017-Dec-08 10:30N 39°47' W 075°27'0 0.0
2017-Dec-08 10:00N 39°47' W 075°27'0 0.0
2017-Dec-08 09:30N 39°47' W 075°27'0 0.0
2017-Dec-08 09:01N 39°47' W 075°27'0 0.0
2017-Dec-08 08:30N 39°47' W 075°27'0 0.0
2017-Dec-08 08:00N 39°47' W 075°27'0 0.0
2017-Dec-08 07:30N 39°47' W 075°27'0 0.0
2017-Dec-08 07:00N 39°47' W 075°27'0 0.0
2017-Dec-08 06:31N 39°47' W 075°27'0 0.0
2017-Dec-08 06:00N 39°47' W 075°27'0 0.0
2017-Dec-08 05:30N 39°47' W 075°27'0 0.0
2017-Dec-08 05:00N 39°47' W 075°27'0 0.0
2017-Dec-08 04:31N 39°47' W 075°27'0 0.0
2017-Dec-08 04:00N 39°47' W 075°27'0 0.0
2017-Dec-08 03:31N 39°47' W 075°27'0 0.0
2017-Dec-08 03:00N 39°47' W 075°27'0 0.0
2017-Dec-08 02:30N 39°47' W 075°27'0 0.0
2017-Dec-08 02:00N 39°47' W 075°27'0 0.0
2017-Dec-08 01:31N 39°47' W 075°27'0 0.0
2017-Dec-08 01:01N 39°47' W 075°27'0 0.0
2017-Dec-08 00:31N 39°47' W 075°27'0 0.0
2017-Dec-08 00:00N 39°47' W 075°27'0 0.0
2017-Dec-07 23:30N 39°47' W 075°27'0 0.0
2017-Dec-07 23:00N 39°47' W 075°27'0 0.0
2017-Dec-07 22:30N 39°47' W 075°27'0 0.0
2017-Dec-07 22:00N 39°47' W 075°27'0 0.0
2017-Dec-07 21:31N 39°47' W 075°27'0 0.0
2017-Dec-07 21:00N 39°47' W 075°27'0 0.0
2017-Dec-07 20:30N 39°47' W 075°27'0 0.0
2017-Dec-07 20:00N 39°47' W 075°27'0 0.0
2017-Dec-07 19:30N 39°47' W 075°27'0 0.0
2017-Dec-07 19:00N 39°47' W 075°27'0 0.0
2017-Dec-07 18:30N 39°47' W 075°27'0 0.0
2017-Dec-07 18:00N 39°47' W 075°27'0 0.0
2017-Dec-07 17:30N 39°47' W 075°27'0 0.0
2017-Dec-07 17:00N 39°47' W 075°27'0 0.0
2017-Dec-07 16:30N 39°47' W 075°27'0 0.0
2017-Dec-07 16:00N 39°47' W 075°27'0 0.0
2017-Dec-07 15:30N 39°47' W 075°27'0 0.0
2017-Dec-07 15:00N 39°47' W 075°27'0 0.6
2017-Dec-07 14:30N 39°47' W 075°26'1 1.8
2017-Dec-07 14:01N 39°47' W 075°27'0 0.3
2017-Dec-07 13:30N 39°47' W 075°27'0 0.3
2017-Dec-07 13:00N 39°47' W 075°27'0 0.0
2017-Dec-07 12:30N 39°47' W 075°27'0 0.0
2017-Dec-07 12:00N 39°47' W 075°27'0 0.0
2017-Dec-07 11:30N 39°47' W 075°27'0 0.0
2017-Dec-07 11:00N 39°47' W 075°27'0 0.0
2017-Dec-07 10:31N 39°47' W 075°27'0 0.0
2017-Dec-07 10:00N 39°47' W 075°27'0 0.2
2017-Dec-07 09:30N 39°47' W 075°27'0 0.1
2017-Dec-07 09:00N 39°47' W 075°27'0 0.0
2017-Dec-07 08:30N 39°47' W 075°27'0 0.0
2017-Dec-07 08:01N 39°47' W 075°27'0 0.0
2017-Dec-07 07:30N 39°47' W 075°27'0 0.0
2017-Dec-07 07:01N 39°47' W 075°27'0 0.0
2017-Dec-07 06:30N 39°47' W 075°27'0 0.0
2017-Dec-07 06:00N 39°47' W 075°27'0 0.0
2017-Dec-07 05:30N 39°47' W 075°27'0 0.0
2017-Dec-07 04:59N 39°47' W 075°27'0 0.0
2017-Dec-07 04:29N 39°47' W 075°27'0 0.0
2017-Dec-07 04:00N 39°47' W 075°27'0 0.2
2017-Dec-07 03:30N 39°47' W 075°27'0 0.1
2017-Dec-07 03:00N 39°47' W 075°27'0 0.0
2017-Dec-07 02:30N 39°47' W 075°27'0 0.0
2017-Dec-07 02:01N 39°47' W 075°27'0 0.0
2017-Dec-07 01:31N 39°47' W 075°27'0 0.0
2017-Dec-07 01:01N 39°47' W 075°27'0 0.0
2017-Dec-07 00:30N 39°47' W 075°27'0 0.0
2017-Dec-07 00:00N 39°47' W 075°27'0 0.0
2017-Dec-06 23:30N 39°47' W 075°27'0 0.0
2017-Dec-06 23:00N 39°47' W 075°27'0 0.0
2017-Dec-06 22:31N 39°47' W 075°27'0 0.0
2017-Dec-06 22:01N 39°47' W 075°27'0 0.0
2017-Dec-06 21:31N 39°47' W 075°27'0 0.2
2017-Dec-06 21:01N 39°47' W 075°27'  
2017-Dec-04 10:30N 39°47' W 075°28'0 0.2
2017-Dec-04 10:01N 39°47' W 075°27'0 0.1
2017-Dec-04 09:23N 39°47' W 075°27'0 0.0
2017-Dec-04 08:59N 39°47' W 075°27'0 0.0
2017-Dec-04 08:30N 39°47' W 075°27'0 0.0
2017-Dec-04 08:00N 39°47' W 075°27'0 0.1
2017-Dec-04 07:30N 39°47' W 075°27'3 5.3
2017-Dec-04 06:59N 39°48' W 075°25'3 6.5
2017-Dec-04 06:27N 39°51' W 075°21'0 0.6
2017-Dec-04 05:59N 39°50' W 075°21'1 1.9
2017-Dec-04 05:29N 39°51' W 075°20'1 1.9
2017-Dec-04 04:59N 39°50' W 075°21'4 7.2
2017-Dec-04 04:25N 39°48' W 075°26'1 2.1
2017-Dec-04 04:00N 39°48' W 075°25'2 3.4
2017-Dec-04 03:27N 39°47' W 075°27'0 0.0
2017-Dec-04 02:57N 39°47' W 075°27'0 0.0
2017-Dec-04 02:28N 39°47' W 075°27'0 0.0
2017-Dec-04 01:59N 39°47' W 075°27'0 0.0
2017-Dec-04 01:28N 39°47' W 075°27'0 0.0
2017-Dec-04 00:55N 39°47' W 075°27'0 0.0
2017-Dec-04 00:23N 39°47' W 075°27'0 0.0
2017-Dec-04 00:00N 39°47' W 075°27'0 0.0
2017-Dec-03 23:30N 39°47' W 075°27'0 0.0
2017-Dec-03 23:00N 39°47' W 075°27'0 0.0
2017-Dec-03 22:29N 39°47' W 075°27'0 0.0
2017-Dec-03 22:00N 39°47' W 075°27'0 0.0
2017-Dec-03 21:30N 39°47' W 075°27'0 0.0
2017-Dec-03 20:50N 39°47' W 075°27'0 0.0
2017-Dec-03 20:28N 39°47' W 075°27'0 0.2
2017-Dec-03 20:01N 39°47' W 075°26'0 0.1
2017-Dec-03 19:20N 39°47' W 075°27'0 0.0
2017-Dec-03 18:52N 39°47' W 075°27'0 0.0
2017-Dec-03 18:27N 39°47' W 075°27'0 0.0
2017-Dec-03 17:59N 39°47' W 075°27'0 0.0
2017-Dec-03 17:29N 39°47' W 075°27'0 0.0
2017-Dec-03 16:58N 39°47' W 075°27'0 0.0
2017-Dec-03 16:23N 39°47' W 075°27'0 0.0
2017-Dec-03 15:53N 39°47' W 075°27'0 0.0
2017-Dec-03 15:29N 39°47' W 075°27'0 0.0
2017-Dec-03 14:56N 39°47' W 075°27'0 0.1
2017-Dec-03 14:28N 39°47' W 075°27'0 0.0
2017-Dec-03 14:00N 39°47' W 075°27'0 0.0
2017-Dec-03 13:24N 39°47' W 075°27'0 0.0
2017-Dec-03 12:56N 39°47' W 075°27'0 0.0
2017-Dec-03 12:30N 39°47' W 075°27'0 0.0
2017-Dec-03 11:59N 39°47' W 075°27'0 0.0
2017-Dec-03 11:28N 39°47' W 075°27'0 0.0
2017-Dec-03 10:58N 39°47' W 075°27'0 0.0
2017-Dec-03 10:24N 39°47' W 075°27'0 0.2
2017-Dec-03 09:55N 39°47' W 075°27'1 1.2
2017-Dec-03 09:30N 39°47' W 075°27'0 0.1
2017-Dec-03 08:52N 39°47' W 075°27'0 0.0
2017-Dec-03 08:30N 39°47' W 075°27'0 0.1
2017-Dec-03 08:00N 39°47' W 075°27'2 4.5
2017-Dec-03 07:29N 39°48' W 075°25'3 6.4
2017-Dec-03 06:58N 39°50' W 075°21'1 1.6
2017-Dec-03 06:28N 39°51' W 075°21'0 0.6
2017-Dec-03 06:00N 39°51' W 075°20'0 0.1
2017-Dec-03 05:29N 39°51' W 075°20'0 0.6
2017-Dec-03 04:58N 39°51' W 075°20'2 3.8
2017-Dec-03 04:26N 39°50' W 075°22'2 5.5
2017-Dec-03 04:00N 39°48' W 075°25'2 3.9
2017-Dec-03 03:30N 39°47' W 075°27'0 0.0
2017-Dec-03 02:59N 39°47' W 075°27'0 0.0
2017-Dec-03 02:29N 39°47' W 075°27'0 0.0
2017-Dec-03 02:00N 39°47' W 075°27'0 0.0
2017-Dec-03 01:27N 39°47' W 075°27'0 0.0
2017-Dec-03 00:59N 39°47' W 075°27'0 0.0
2017-Dec-03 00:30N 39°47' W 075°27'0 0.0
2017-Dec-03 00:00N 39°47' W 075°27'0 0.0
2017-Dec-02 23:30N 39°47' W 075°27'0 0.0
2017-Dec-02 22:59N 39°47' W 075°27'0 0.0
2017-Dec-02 22:27N 39°47' W 075°27'0 0.0
2017-Dec-02 21:58N 39°47' W 075°27'0 0.0
2017-Dec-02 21:29N 39°47' W 075°27'0 0.0
2017-Dec-02 21:00N 39°47' W 075°27'0 0.0
2017-Dec-02 20:29N 39°47' W 075°27'0 0.0
2017-Dec-02 19:58N 39°47' W 075°27'1 1.3
2017-Dec-02 19:30N 39°47' W 075°27'1 1.1
2017-Dec-02 18:57N 39°47' W 075°27'1 1.2
2017-Dec-02 18:30N 39°47' W 075°27'0 0.0
2017-Dec-02 18:00N 39°47' W 075°27'0 0.1
2017-Dec-02 17:30N 39°47' W 075°27'0 0.2
2017-Dec-02 17:00N 39°47' W 075°27'0 0.0
2017-Dec-02 16:28N 39°47' W 075°27'0 0.0
2017-Dec-02 15:57N 39°47' W 075°27'0 0.2
2017-Dec-02 15:30N 39°47' W 075°27'0 0.1
2017-Dec-02 14:59N 39°47' W 075°27'0 0.2
2017-Dec-02 14:30N 39°47' W 075°27'0 0.0
2017-Dec-02 13:59N 39°47' W 075°27'0 0.0
2017-Dec-02 13:28N 39°47' W 075°27'0 0.0
2017-Dec-02 12:59N 39°47' W 075°27'0 0.0
2017-Dec-02 12:26N 39°47' W 075°27'0 0.0
2017-Dec-02 11:59N 39°47' W 075°27'0 0.0
2017-Dec-02 11:29N 39°47' W 075°27'0 0.2
2017-Dec-02 11:01N 39°47' W 075°27'0 0.0
2017-Dec-02 10:30N 39°47' W 075°27'0 0.0
2017-Dec-02 10:00N 39°47' W 075°27'0 0.0
2017-Dec-02 09:30N 39°47' W 075°27'0 0.0
2017-Dec-02 09:00N 39°47' W 075°27'0 0.0
2017-Dec-02 08:30N 39°47' W 075°27'0 0.0
2017-Dec-02 08:00N 39°47' W 075°27'0 0.0
2017-Dec-02 07:30N 39°47' W 075°27'2 4.7
2017-Dec-02 06:59N 39°48' W 075°25'3 7.0
2017-Dec-02 06:30N 39°50' W 075°21'1 2.1
2017-Dec-02 06:00N 39°51' W 075°20'1 1.4
2017-Dec-02 05:30N 39°51' W 075°21'4 7.2
2017-Dec-02 05:00N 39°49' W 075°24'2 4.5
2017-Dec-02 04:30N 39°47' W 075°27'0 0.1
2017-Dec-02 04:00N 39°47' W 075°27'0 0.0
2017-Dec-02 03:29N 39°47' W 075°27'0 0.0
2017-Dec-02 03:00N 39°47' W 075°27'0 0.0
2017-Dec-02 02:30N 39°47' W 075°27'0 0.3
2017-Dec-02 01:59N 39°47' W 075°27'0 0.0
2017-Dec-02 01:30N 39°47' W 075°27'0 0.0
2017-Dec-02 01:00N 39°47' W 075°27'0 0.0
2017-Dec-02 00:30N 39°47' W 075°27'0 0.0
2017-Dec-02 00:00N 39°47' W 075°27'0 0.0
2017-Dec-01 23:30N 39°47' W 075°27'0 0.0
2017-Dec-01 23:00N 39°47' W 075°27'0 0.0
2017-Dec-01 22:31N 39°47' W 075°27'0 0.0
2017-Dec-01 22:01N 39°47' W 075°27'0 0.0
2017-Dec-01 21:28N 39°47' W 075°27'0 0.0
2017-Dec-01 21:01N 39°47' W 075°27'0 0.0
2017-Dec-01 20:30N 39°47' W 075°27'0 0.0
2017-Dec-01 20:01N 39°47' W 075°27'0 0.0
2017-Dec-01 19:31N 39°47' W 075°27'0 0.0
2017-Dec-01 19:00N 39°47' W 075°27'0 0.0
2017-Dec-01 18:30N 39°47' W 075°27'0 0.0
2017-Dec-01 18:01N 39°47' W 075°27'0 0.0
2017-Dec-01 17:30N 39°47' W 075°27'0 0.0
2017-Dec-01 17:00N 39°47' W 075°27'  

Dump ship's entire track history